sensor_id;sensor_type;location;lat;lon;timestamp;pressure;altitude;pressure_sealevel;temperature;humidity
6530;BME280;3298;42.688;23.366;2022-07-11T00:02:26;60512.94;;;-145.06;72.42
6530;BME280;3298;42.688;23.366;2022-07-11T00:04:53;60500.63;;;-145.06;73.01
6530;BME280;3298;42.688;23.366;2022-07-11T00:07:20;60531.41;;;-145.06;73.41
6530;BME280;3298;42.688;23.366;2022-07-11T00:09:47;60469.84;;;-145.06;72.97
6530;BME280;3298;42.688;23.366;2022-07-11T00:12:14;60496.50;;;-145.06;72.31
6530;BME280;3298;42.688;23.366;2022-07-11T00:14:41;60519.09;;;-145.06;72.00
6530;BME280;3298;42.688;23.366;2022-07-11T00:17:09;60496.50;;;-145.06;71.33
6530;BME280;3298;42.688;23.366;2022-07-11T00:19:37;60512.94;;;-145.06;71.25
6530;BME280;3298;42.688;23.366;2022-07-11T00:22:04;60385.72;;;-145.06;70.87
6530;BME280;3298;42.688;23.366;2022-07-11T00:24:32;60467.78;;;-145.06;70.01
6530;BME280;3298;42.688;23.366;2022-07-11T00:26:59;60498.56;;;-145.06;69.74
6530;BME280;3298;42.688;23.366;2022-07-11T00:29:26;60467.78;;;-145.06;69.35
6530;BME280;3298;42.688;23.366;2022-07-11T00:31:54;60517.03;;;-145.06;69.24
6530;BME280;3298;42.688;23.366;2022-07-11T00:34:23;60498.56;;;-145.06;69.40
6530;BME280;3298;42.688;23.366;2022-07-11T00:36:50;60490.34;;;-145.06;68.96
6530;BME280;3298;42.688;23.366;2022-07-11T00:39:17;60463.69;;;-145.06;69.02
6530;BME280;3298;42.688;23.366;2022-07-11T00:41:44;60166.16;;;-145.06;68.96
6530;BME280;3298;42.688;23.366;2022-07-11T00:44:12;60400.06;;;-145.06;68.85
6530;BME280;3298;42.688;23.366;2022-07-11T00:46:38;60494.47;;;-145.06;68.85
6530;BME280;3298;42.688;23.366;2022-07-11T00:49:05;60484.19;;;-145.06;68.70
6530;BME280;3298;42.688;23.366;2022-07-11T00:51:34;60443.16;;;-145.06;68.92
6530;BME280;3298;42.688;23.366;2022-07-11T00:54:01;60437.00;;;-145.06;68.96
6530;BME280;3298;42.688;23.366;2022-07-11T00:56:29;60488.31;;;-145.06;68.87
6530;BME280;3298;42.688;23.366;2022-07-11T00:58:57;60640.16;;;-145.06;68.86
6530;BME280;3298;42.688;23.366;2022-07-11T01:01:24;60461.63;;;-145.06;68.79
6530;BME280;3298;42.688;23.366;2022-07-11T01:03:51;60480.09;;;-145.06;69.07
6530;BME280;3298;42.688;23.366;2022-07-11T01:06:18;60434.94;;;-145.06;69.62
6530;BME280;3298;42.688;23.366;2022-07-11T01:08:46;60443.16;;;-145.06;70.12
6530;BME280;3298;42.688;23.366;2022-07-11T01:11:13;60414.44;;;-145.06;70.47
6530;BME280;3298;42.688;23.366;2022-07-11T01:13:41;60391.84;;;-145.06;70.43
6530;BME280;3298;42.688;23.366;2022-07-11T01:16:11;60449.31;;;-145.06;70.41
6530;BME280;3298;42.688;23.366;2022-07-11T01:18:40;60449.31;;;-145.06;70.60
6530;BME280;3298;42.688;23.366;2022-07-11T01:21:12;60389.81;;;-145.06;70.71
6530;BME280;3298;42.688;23.366;2022-07-11T01:23:46;60439.06;;;-145.06;70.65
6530;BME280;3298;42.688;23.366;2022-07-11T01:26:14;60443.16;;;-145.06;71.12
6530;BME280;3298;42.688;23.366;2022-07-11T01:28:41;60408.28;;;-145.06;71.05
6530;BME280;3298;42.688;23.366;2022-07-11T01:31:08;59958.94;;;-145.06;70.64
6530;BME280;3298;42.688;23.366;2022-07-11T01:33:35;60334.41;;;-145.06;71.06
6530;BME280;3298;42.688;23.366;2022-07-11T01:36:02;60059.47;;;-145.06;71.08
6530;BME280;3298;42.688;23.366;2022-07-11T01:38:29;60244.13;;;-145.06;71.46
6530;BME280;3298;42.688;23.366;2022-07-11T01:40:57;60467.78;;;-145.06;71.66
6530;BME280;3298;42.688;23.366;2022-07-11T01:43:24;60447.25;;;-145.06;71.27
6530;BME280;3298;42.688;23.366;2022-07-11T01:45:51;60426.75;;;-145.06;71.14
6530;BME280;3298;42.688;23.366;2022-07-11T01:48:18;60416.47;;;-145.06;71.10
6530;BME280;3298;42.688;23.366;2022-07-11T01:50:45;60410.31;;;-145.06;71.16
6530;BME280;3298;42.688;23.366;2022-07-11T01:53:12;60445.22;;;-145.06;71.29
6530;BME280;3298;42.688;23.366;2022-07-11T01:55:39;60426.75;;;-145.06;71.40
6530;BME280;3298;42.688;23.366;2022-07-11T01:58:07;60402.13;;;-145.06;71.37
6530;BME280;3298;42.688;23.366;2022-07-11T02:00:34;60414.44;;;-145.06;71.19
6530;BME280;3298;42.688;23.366;2022-07-11T02:03:01;60414.44;;;-145.06;71.34
6530;BME280;3298;42.688;23.366;2022-07-11T02:05:28;60264.63;;;-145.06;71.78
6530;BME280;3298;42.688;23.366;2022-07-11T02:07:55;60393.91;;;-145.06;71.53
6530;BME280;3298;42.688;23.366;2022-07-11T02:10:42;60385.72;;;-145.06;71.58
6530;BME280;3298;42.688;23.366;2022-07-11T02:13:11;60416.47;;;-145.06;71.53
6530;BME280;3298;42.688;23.366;2022-07-11T02:15:40;60391.84;;;-145.06;71.52
6530;BME280;3298;42.688;23.366;2022-07-11T02:18:07;60352.88;;;-145.06;72.28
6530;BME280;3298;42.688;23.366;2022-07-11T02:20:34;60406.22;;;-145.06;72.34
6530;BME280;3298;42.688;23.366;2022-07-11T02:23:01;60389.81;;;-145.06;72.56
6530;BME280;3298;42.688;23.366;2022-07-11T02:25:29;60332.34;;;-145.06;73.12
6530;BME280;3298;42.688;23.366;2022-07-11T02:27:56;60356.97;;;-145.06;73.56
6530;BME280;3298;42.688;23.366;2022-07-11T02:30:25;60305.69;;;-145.06;74.33
6530;BME280;3298;42.688;23.366;2022-07-11T02:32:52;60340.56;;;-145.06;74.21
6530;BME280;3298;42.688;23.366;2022-07-11T02:35:19;59872.75;;;-145.06;74.88
6530;BME280;3298;42.688;23.366;2022-07-11T02:37:46;60361.09;;;-145.06;74.40
6530;BME280;3298;42.688;23.366;2022-07-11T02:40:14;60289.25;;;-145.06;74.62
6530;BME280;3298;42.688;23.366;2022-07-11T02:42:41;60315.94;;;-145.06;75.29
6530;BME280;3298;42.688;23.366;2022-07-11T02:45:08;60287.22;;;-145.06;75.66
6530;BME280;3298;42.688;23.366;2022-07-11T02:47:37;60207.19;;;-145.06;75.07
6530;BME280;3298;42.688;23.366;2022-07-11T02:50:07;60215.41;;;-145.06;75.11
6530;BME280;3298;42.688;23.366;2022-07-11T02:52:34;60147.69;;;-145.06;74.42
6530;BME280;3298;42.688;23.366;2022-07-11T02:55:01;60100.50;;;-145.06;75.21
6530;BME280;3298;42.688;23.366;2022-07-11T02:57:28;60049.19;;;-145.06;75.21
6530;BME280;3298;42.688;23.366;2022-07-11T02:59:55;59905.59;;;-145.06;75.61
6530;BME280;3298;42.688;23.366;2022-07-11T03:02:22;59932.25;;;-145.06;75.52
6530;BME280;3298;42.688;23.366;2022-07-11T03:04:50;59893.28;;;-145.06;75.45
6530;BME280;3298;42.688;23.366;2022-07-11T03:07:17;59798.91;;;-145.06;75.66
6530;BME280;3298;42.688;23.366;2022-07-11T03:09:44;59780.44;;;-145.06;75.64
6530;BME280;3298;42.688;23.366;2022-07-11T03:12:11;59735.31;;;-145.06;76.52
6530;BME280;3298;42.688;23.366;2022-07-11T03:14:37;59720.94;;;-145.06;76.74
6530;BME280;3298;42.688;23.366;2022-07-11T03:17:04;59684.00;;;-145.06;76.45
6530;BME280;3298;42.688;23.366;2022-07-11T03:19:31;59673.75;;;-145.06;76.76
6530;BME280;3298;42.688;23.366;2022-07-11T03:21:59;59667.59;;;-145.06;76.99
6530;BME280;3298;42.688;23.366;2022-07-11T03:24:26;59581.44;;;-145.06;76.30
6530;BME280;3298;42.688;23.366;2022-07-11T03:26:53;59645.03;;;-145.06;76.76
6530;BME280;3298;42.688;23.366;2022-07-11T03:29:19;59595.81;;;-145.06;76.75
6530;BME280;3298;42.688;23.366;2022-07-11T03:31:46;59560.94;;;-145.06;76.45
6530;BME280;3298;42.688;23.366;2022-07-11T03:34:13;59591.69;;;-145.06;76.75
6530;BME280;3298;42.688;23.366;2022-07-11T03:36:40;59556.81;;;-145.06;77.36
6530;BME280;3298;42.688;23.366;2022-07-11T03:39:08;59556.81;;;-145.06;75.87
6530;BME280;3298;42.688;23.366;2022-07-11T03:41:35;59573.22;;;-145.06;75.55
6530;BME280;3298;42.688;23.366;2022-07-11T03:44:01;59552.72;;;-145.06;75.71
6530;BME280;3298;42.688;23.366;2022-07-11T03:46:28;59544.50;;;-145.06;75.55
6530;BME280;3298;42.688;23.366;2022-07-11T03:48:55;59507.59;;;-145.06;74.06
6530;BME280;3298;42.688;23.366;2022-07-11T03:51:22;59511.69;;;-145.06;74.06
6530;BME280;3298;42.688;23.366;2022-07-11T03:53:48;59482.97;;;-145.06;73.84
6530;BME280;3298;42.688;23.366;2022-07-11T03:56:16;59515.78;;;-145.06;73.86
6530;BME280;3298;42.688;23.366;2022-07-11T03:58:47;59489.13;;;-145.06;73.46
6530;BME280;3298;42.688;23.366;2022-07-11T04:01:15;59495.28;;;-145.06;73.54
6530;BME280;3298;42.688;23.366;2022-07-11T04:03:42;59454.25;;;-145.06;73.44
6530;BME280;3298;42.688;23.366;2022-07-11T04:06:08;59470.66;;;-145.06;73.06
6530;BME280;3298;42.688;23.366;2022-07-11T04:08:35;59466.56;;;-145.06;73.56
6530;BME280;3298;42.688;23.366;2022-07-11T04:11:02;59450.16;;;-145.06;73.22
6530;BME280;3298;42.688;23.366;2022-07-11T04:13:31;59238.88;;;-145.06;73.91
6530;BME280;3298;42.688;23.366;2022-07-11T04:15:58;59413.22;;;-145.06;74.09
6530;BME280;3298;42.688;23.366;2022-07-11T04:18:24;59405.03;;;-145.06;74.44
6530;BME280;3298;42.688;23.366;2022-07-11T04:20:52;59419.38;;;-145.06;74.50
6530;BME280;3298;42.688;23.366;2022-07-11T04:23:19;59398.88;;;-145.06;74.90
6530;BME280;3298;42.688;23.366;2022-07-11T04:25:45;59382.47;;;-145.06;75.26
6530;BME280;3298;42.688;23.366;2022-07-11T04:28:12;59364.00;;;-145.06;75.52
6530;BME280;3298;42.688;23.366;2022-07-11T04:30:40;59331.16;;;-145.06;74.97
6530;BME280;3298;42.688;23.366;2022-07-11T04:33:07;59450.16;;;-145.06;75.36
6530;BME280;3298;42.688;23.366;2022-07-11T04:35:34;59427.59;;;-145.06;75.29
6530;BME280;3298;42.688;23.366;2022-07-11T04:38:01;59458.34;;;-145.06;75.21
6530;BME280;3298;42.688;23.366;2022-07-11T04:40:28;59253.22;;;-145.06;74.95
6530;BME280;3298;42.688;23.366;2022-07-11T04:42:55;59327.06;;;-145.06;75.26
6530;BME280;3298;42.688;23.366;2022-07-11T04:45:22;59331.16;;;-145.06;75.25
6530;BME280;3298;42.688;23.366;2022-07-11T04:47:50;59333.22;;;-145.06;74.27
6530;BME280;3298;42.688;23.366;2022-07-11T04:50:16;59366.03;;;-145.06;74.06
6530;BME280;3298;42.688;23.366;2022-07-11T04:52:43;59351.69;;;-145.06;73.94
6530;BME280;3298;42.688;23.366;2022-07-11T04:55:10;59310.66;;;-145.06;73.34
6530;BME280;3298;42.688;23.366;2022-07-11T04:57:37;59212.19;;;-145.06;72.50
6530;BME280;3298;42.688;23.366;2022-07-11T05:00:05;59048.09;;;-145.06;70.16
6530;BME280;3298;42.688;23.366;2022-07-11T05:02:32;59249.13;;;-145.06;66.25
6530;BME280;3298;42.688;23.366;2022-07-11T05:05:00;59292.19;;;-145.06;62.05
6530;BME280;3298;42.688;23.366;2022-07-11T05:07:27;59519.91;;;-145.06;58.15
6530;BME280;3298;42.688;23.366;2022-07-11T05:09:53;59622.47;;;-145.06;54.95
6530;BME280;3298;42.688;23.366;2022-07-11T05:12:20;60808.44;;;-145.06;55.22
6530;BME280;3298;42.688;23.366;2022-07-11T05:14:47;59651.19;;;-145.06;53.88
6530;BME280;3298;42.688;23.366;2022-07-11T05:17:14;59616.31;;;-145.06;53.87
6530;BME280;3298;42.688;23.366;2022-07-11T05:19:41;59681.97;;;-145.06;52.14
6530;BME280;3298;42.688;23.366;2022-07-11T05:22:09;59751.72;;;-145.06;51.53
6530;BME280;3298;42.688;23.366;2022-07-11T05:24:36;59663.50;;;-145.06;50.93
6530;BME280;3298;42.688;23.366;2022-07-11T05:27:03;59544.50;;;-145.06;52.99
6530;BME280;3298;42.688;23.366;2022-07-11T05:29:30;59585.53;;;-145.06;52.30
6530;BME280;3298;42.688;23.366;2022-07-11T05:31:57;59589.66;;;-145.06;52.10
6530;BME280;3298;42.688;23.366;2022-07-11T05:34:24;59601.97;;;-145.06;51.57
6530;BME280;3298;42.688;23.366;2022-07-11T05:36:51;59638.88;;;-145.06;51.23
6530;BME280;3298;42.688;23.366;2022-07-11T05:39:20;59628.63;;;-145.06;51.27
6530;BME280;3298;42.688;23.366;2022-07-11T05:41:46;59612.22;;;-145.06;50.55
6530;BME280;3298;42.688;23.366;2022-07-11T05:44:16;59610.16;;;-145.06;51.18
6530;BME280;3298;42.688;23.366;2022-07-11T05:46:44;59708.63;;;-145.06;49.76
6530;BME280;3298;42.688;23.366;2022-07-11T05:49:11;59778.38;;;-145.06;47.78
6530;BME280;3298;42.688;23.366;2022-07-11T05:51:38;59745.56;;;-145.06;46.34
6530;BME280;3298;42.688;23.366;2022-07-11T05:54:05;59819.41;;;-145.06;42.86
6530;BME280;3298;42.688;23.366;2022-07-11T05:56:33;59809.16;;;-145.06;42.31
6530;BME280;3298;42.688;23.366;2022-07-11T05:59:00;59675.81;;;-145.06;42.42
6530;BME280;3298;42.688;23.366;2022-07-11T06:01:27;59690.16;;;-145.06;42.22
6530;BME280;3298;42.688;23.366;2022-07-11T06:03:57;59745.56;;;-145.06;42.10
6530;BME280;3298;42.688;23.366;2022-07-11T06:06:24;59655.28;;;-145.06;41.35
6530;BME280;3298;42.688;23.366;2022-07-11T06:08:51;59497.34;;;-145.06;40.81
6530;BME280;3298;42.688;23.366;2022-07-11T06:11:19;59322.97;;;-145.06;41.04
6530;BME280;3298;42.688;23.366;2022-07-11T06:13:47;59425.53;;;-145.06;40.33
6530;BME280;3298;42.688;23.366;2022-07-11T06:16:15;59511.69;;;-145.06;40.20
6530;BME280;3298;42.688;23.366;2022-07-11T06:18:42;59411.19;;;-145.06;38.87
6530;BME280;3298;42.688;23.366;2022-07-11T06:21:09;59431.69;;;-145.06;38.51
6530;BME280;3298;42.688;23.366;2022-07-11T06:23:36;59052.22;;;-145.06;38.50
6530;BME280;3298;42.688;23.366;2022-07-11T06:26:03;59567.06;;;-145.06;38.53
6530;BME280;3298;42.688;23.366;2022-07-11T06:28:30;59729.16;;;-145.06;38.08
6530;BME280;3298;42.688;23.366;2022-07-11T06:30:58;59675.81;;;-145.06;39.64
6530;BME280;3298;42.688;23.366;2022-07-11T06:33:25;59577.34;;;-145.06;40.46
6530;BME280;3298;42.688;23.366;2022-07-11T06:35:52;59409.13;;;-145.06;42.05
6530;BME280;3298;42.688;23.366;2022-07-11T06:38:19;59271.69;;;-145.06;42.52
6530;BME280;3298;42.688;23.366;2022-07-11T06:40:46;59124.00;;;-145.06;43.90
6530;BME280;3298;42.688;23.366;2022-07-11T06:43:13;59156.81;;;-145.06;43.33
6530;BME280;3298;42.688;23.366;2022-07-11T06:45:40;59173.22;;;-145.06;43.69
6530;BME280;3298;42.688;23.366;2022-07-11T06:48:08;59208.09;;;-145.06;43.55
6530;BME280;3298;42.688;23.366;2022-07-11T06:50:35;58978.38;;;-145.06;43.73
6530;BME280;3298;42.688;23.366;2022-07-11T06:53:02;58937.34;;;-145.06;44.69
6530;BME280;3298;42.688;23.366;2022-07-11T06:55:30;59725.03;;;-145.06;45.19
6530;BME280;3298;42.688;23.366;2022-07-11T06:57:57;59142.47;;;-145.06;45.63
6530;BME280;3298;42.688;23.366;2022-07-11T07:00:24;59171.19;;;-145.06;43.80
6530;BME280;3298;42.688;23.366;2022-07-11T07:02:53;59197.84;;;-145.06;44.06
6530;BME280;3298;42.688;23.366;2022-07-11T07:05:23;59175.28;;;-145.06;43.45
6530;BME280;3298;42.688;23.366;2022-07-11T07:07:50;59195.78;;;-145.06;43.04
6530;BME280;3298;42.688;23.366;2022-07-11T07:10:17;59138.34;;;-145.06;44.04
6530;BME280;3298;42.688;23.366;2022-07-11T07:12:44;59240.91;;;-145.06;43.22
6530;BME280;3298;42.688;23.366;2022-07-11T07:15:11;59095.28;;;-145.06;43.17
6530;BME280;3298;42.688;23.366;2022-07-11T07:17:38;59247.06;;;-145.06;43.21
6530;BME280;3298;42.688;23.366;2022-07-11T07:20:05;59220.41;;;-145.06;43.32
6530;BME280;3298;42.688;23.366;2022-07-11T07:22:37;59249.13;;;-145.06;43.99
6530;BME280;3298;42.688;23.366;2022-07-11T07:25:06;59236.81;;;-145.06;43.88
6530;BME280;3298;42.688;23.366;2022-07-11T07:27:33;59076.81;;;-145.06;43.78
6530;BME280;3298;42.688;23.366;2022-07-11T07:30:00;59199.88;;;-145.06;43.91
6530;BME280;3298;42.688;23.366;2022-07-11T07:32:27;59232.72;;;-145.06;43.36
6530;BME280;3298;42.688;23.366;2022-07-11T07:34:54;59263.47;;;-145.06;43.13
6530;BME280;3298;42.688;23.366;2022-07-11T07:37:21;59257.31;;;-145.06;42.39
6530;BME280;3298;42.688;23.366;2022-07-11T07:39:49;59257.31;;;-145.06;42.74
6530;BME280;3298;42.688;23.366;2022-07-11T07:42:16;59187.59;;;-145.06;42.89
6530;BME280;3298;42.688;23.366;2022-07-11T07:44:43;59183.47;;;-145.06;43.59
6530;BME280;3298;42.688;23.366;2022-07-11T07:47:09;59085.03;;;-145.06;43.89
6530;BME280;3298;42.688;23.366;2022-07-11T07:49:36;59220.41;;;-145.06;43.87
6530;BME280;3298;42.688;23.366;2022-07-11T07:52:03;59240.91;;;-145.06;43.32
6530;BME280;3298;42.688;23.366;2022-07-11T07:54:30;59242.97;;;-145.06;42.74
6530;BME280;3298;42.688;23.366;2022-07-11T07:56:58;59204.00;;;-145.06;43.33
6530;BME280;3298;42.688;23.366;2022-07-11T07:59:25;59261.44;;;-145.06;43.71
6530;BME280;3298;42.688;23.366;2022-07-11T08:01:52;59150.66;;;-145.06;43.20
6530;BME280;3298;42.688;23.366;2022-07-11T08:04:18;59257.31;;;-145.06;43.62
6530;BME280;3298;42.688;23.366;2022-07-11T08:06:45;59261.44;;;-145.06;43.78
6530;BME280;3298;42.688;23.366;2022-07-11T08:09:12;59322.97;;;-145.06;43.10
6530;BME280;3298;42.688;23.366;2022-07-11T08:11:39;59331.16;;;-145.06;42.62
6530;BME280;3298;42.688;23.366;2022-07-11T08:14:07;59249.13;;;-145.06;43.14
6530;BME280;3298;42.688;23.366;2022-07-11T08:16:34;59218.34;;;-145.06;43.00
6530;BME280;3298;42.688;23.366;2022-07-11T08:19:03;59201.94;;;-145.06;43.49
6530;BME280;3298;42.688;23.366;2022-07-11T08:21:31;59013.22;;;-145.06;43.03
6530;BME280;3298;42.688;23.366;2022-07-11T08:23:59;60968.50;;;-145.06;43.22
6530;BME280;3298;42.688;23.366;2022-07-11T08:26:26;59165.03;;;-145.06;43.08
6530;BME280;3298;42.688;23.366;2022-07-11T08:28:53;58904.53;;;-145.06;43.10
6530;BME280;3298;42.688;23.366;2022-07-11T08:31:21;59136.31;;;-145.06;42.45
6530;BME280;3298;42.688;23.366;2022-07-11T08:33:48;59187.59;;;-145.06;42.16
6530;BME280;3298;42.688;23.366;2022-07-11T08:36:16;59247.06;;;-145.06;41.30
6530;BME280;3298;42.688;23.366;2022-07-11T08:38:43;59251.16;;;-145.06;41.74
6530;BME280;3298;42.688;23.366;2022-07-11T08:41:13;59206.03;;;-145.06;41.22
6530;BME280;3298;42.688;23.366;2022-07-11T08:43:41;59257.31;;;-145.06;40.50
6530;BME280;3298;42.688;23.366;2022-07-11T08:46:09;59158.88;;;-145.06;41.06
6530;BME280;3298;42.688;23.366;2022-07-11T08:48:39;59165.03;;;-145.06;41.70
6530;BME280;3298;42.688;23.366;2022-07-11T08:51:08;59204.00;;;-145.06;41.32
6530;BME280;3298;42.688;23.366;2022-07-11T08:53:39;59204.00;;;-145.06;41.16
6530;BME280;3298;42.688;23.366;2022-07-11T08:56:10;59232.72;;;-145.06;41.08
6530;BME280;3298;42.688;23.366;2022-07-11T08:58:42;59197.84;;;-145.06;40.12
6530;BME280;3298;42.688;23.366;2022-07-11T09:01:10;59238.88;;;-145.06;39.42
6530;BME280;3298;42.688;23.366;2022-07-11T09:03:40;59222.47;;;-145.06;37.53
6530;BME280;3298;42.688;23.366;2022-07-11T09:06:07;59195.78;;;-145.06;38.18
6530;BME280;3298;42.688;23.366;2022-07-11T09:08:36;59218.34;;;-145.06;38.60
6530;BME280;3298;42.688;23.366;2022-07-11T09:11:03;59261.44;;;-145.06;37.98
6530;BME280;3298;42.688;23.366;2022-07-11T09:13:30;59089.13;;;-145.06;36.91
6530;BME280;3298;42.688;23.366;2022-07-11T09:16:01;59097.34;;;-145.06;36.31
6530;BME280;3298;42.688;23.366;2022-07-11T09:18:29;59037.84;;;-145.06;36.03
6530;BME280;3298;42.688;23.366;2022-07-11T09:21:01;59109.63;;;-145.06;36.65
6530;BME280;3298;42.688;23.366;2022-07-11T09:23:46;59064.50;;;-145.06;36.54
6530;BME280;3298;42.688;23.366;2022-07-11T09:26:31;59085.03;;;-145.06;36.23
6530;BME280;3298;42.688;23.366;2022-07-11T09:29:03;59101.44;;;-145.06;36.30
6530;BME280;3298;42.688;23.366;2022-07-11T09:31:31;59263.47;;;-145.06;35.65
6530;BME280;3298;42.688;23.366;2022-07-11T09:33:59;59226.56;;;-145.06;35.92
6530;BME280;3298;42.688;23.366;2022-07-11T09:36:41;59281.94;;;-145.06;35.08
6530;BME280;3298;42.688;23.366;2022-07-11T09:39:11;59316.81;;;-145.06;34.87
6530;BME280;3298;42.688;23.366;2022-07-11T09:41:39;59392.72;;;-145.06;34.36
6530;BME280;3298;42.688;23.366;2022-07-11T09:44:10;59382.47;;;-145.06;34.34
6530;BME280;3298;42.688;23.366;2022-07-11T09:46:38;59417.31;;;-145.06;33.96
6530;BME280;3298;42.688;23.366;2022-07-11T09:49:05;59364.00;;;-145.06;34.30
6530;BME280;3298;42.688;23.366;2022-07-11T09:51:33;59425.53;;;-145.06;33.83
6530;BME280;3298;42.688;23.366;2022-07-11T09:54:02;59232.72;;;-145.06;33.61
6530;BME280;3298;42.688;23.366;2022-07-11T09:56:43;59249.13;;;-145.06;33.46
6530;BME280;3298;42.688;23.366;2022-07-11T09:59:12;58853.25;;;-145.06;33.96
6530;BME280;3298;42.688;23.366;2022-07-11T10:01:39;59162.97;;;-145.06;33.96
6530;BME280;3298;42.688;23.366;2022-07-11T10:04:08;59240.91;;;-145.06;33.86
6530;BME280;3298;42.688;23.366;2022-07-11T10:06:35;59281.94;;;-145.06;33.81
6530;BME280;3298;42.688;23.366;2022-07-11T10:09:04;59281.94;;;-145.06;33.72
6530;BME280;3298;42.688;23.366;2022-07-11T10:11:31;59201.94;;;-145.06;34.10
6530;BME280;3298;42.688;23.366;2022-07-11T10:13:59;59300.41;;;-145.06;34.37
6530;BME280;3298;42.688;23.366;2022-07-11T10:16:41;59353.75;;;-145.06;33.94
6530;BME280;3298;42.688;23.366;2022-07-11T10:19:25;59322.97;;;-145.06;33.12
6530;BME280;3298;42.688;23.366;2022-07-11T10:22:03;59411.19;;;-145.06;33.25
6530;BME280;3298;42.688;23.366;2022-07-11T10:24:40;59485.03;;;-145.06;33.14
6530;BME280;3298;42.688;23.366;2022-07-11T10:27:18;59458.34;;;-145.06;33.21
6530;BME280;3298;42.688;23.366;2022-07-11T10:29:49;59388.59;;;-145.06;33.38
6530;BME280;3298;42.688;23.366;2022-07-11T10:32:16;59491.19;;;-145.06;32.63
6530;BME280;3298;42.688;23.366;2022-07-11T10:34:44;59622.47;;;-145.06;32.53
6530;BME280;3298;42.688;23.366;2022-07-11T10:37:13;60155.91;;;-145.06;33.51
6530;BME280;3298;42.688;23.366;2022-07-11T10:39:57;59446.03;;;-145.06;33.44
6530;BME280;3298;42.688;23.366;2022-07-11T10:42:37;59723.00;;;-145.06;32.57
6530;BME280;3298;42.688;23.366;2022-07-11T10:45:07;59798.91;;;-145.06;32.99
6530;BME280;3298;42.688;23.366;2022-07-11T10:47:41;59692.22;;;-145.06;32.22
6530;BME280;3298;42.688;23.366;2022-07-11T10:50:18;59897.38;;;-145.06;31.45
6530;BME280;3298;42.688;23.366;2022-07-11T10:52:49;59913.78;;;-145.06;30.95
6530;BME280;3298;42.688;23.366;2022-07-11T10:55:33;59837.88;;;-145.06;30.94
6530;BME280;3298;42.688;23.366;2022-07-11T10:58:06;59778.38;;;-145.06;30.84
6530;BME280;3298;42.688;23.366;2022-07-11T11:00:34;59811.22;;;-145.06;31.11
6530;BME280;3298;42.688;23.366;2022-07-11T11:03:03;59700.44;;;-145.06;31.58
6530;BME280;3298;42.688;23.366;2022-07-11T11:05:41;59700.44;;;-145.06;31.63
6530;BME280;3298;42.688;23.366;2022-07-11T11:08:43;59589.66;;;-145.06;32.32
6530;BME280;3298;42.688;23.366;2022-07-11T11:11:36;59725.03;;;-145.06;32.59
6530;BME280;3298;42.688;23.366;2022-07-11T11:14:17;59659.41;;;-145.06;31.49
6530;BME280;3298;42.688;23.366;2022-07-11T11:16:45;59782.50;;;-145.06;30.64
6530;BME280;3298;42.688;23.366;2022-07-11T11:19:49;59821.47;;;-145.06;31.31
6530;BME280;3298;42.688;23.366;2022-07-11T11:22:17;59817.38;;;-145.06;31.05
6530;BME280;3298;42.688;23.366;2022-07-11T11:24:45;60022.53;;;-145.06;30.68
6530;BME280;3298;42.688;23.366;2022-07-11T11:27:17;60014.31;;;-145.06;30.04
6530;BME280;3298;42.688;23.366;2022-07-11T11:29:48;59803.00;;;-145.06;30.30
6530;BME280;3298;42.688;23.366;2022-07-11T11:32:15;59749.66;;;-145.06;30.74
6530;BME280;3298;42.688;23.366;2022-07-11T11:34:43;59696.31;;;-145.06;30.53
6530;BME280;3298;42.688;23.366;2022-07-11T11:37:10;59663.50;;;-145.06;30.75
6530;BME280;3298;42.688;23.366;2022-07-11T11:39:38;59848.13;;;-145.06;30.90
6530;BME280;3298;42.688;23.366;2022-07-11T11:42:08;59942.50;;;-145.06;30.53
6530;BME280;3298;42.688;23.366;2022-07-11T11:44:48;59919.94;;;-145.06;30.45
6530;BME280;3298;42.688;23.366;2022-07-11T11:47:16;60141.53;;;-145.06;30.04
6530;BME280;3298;42.688;23.366;2022-07-11T11:49:43;60223.59;;;-145.06;29.69
6530;BME280;3298;42.688;23.366;2022-07-11T11:52:10;60082.03;;;-145.06;29.21
6530;BME280;3298;42.688;23.366;2022-07-11T11:54:38;59729.16;;;-145.06;30.55
6530;BME280;3298;42.688;23.366;2022-07-11T11:57:06;59786.59;;;-145.06;30.61
6530;BME280;3298;42.688;23.366;2022-07-11T11:59:38;59821.47;;;-145.06;31.06
6530;BME280;3298;42.688;23.366;2022-07-11T12:02:05;59675.81;;;-145.06;31.37
6530;BME280;3298;42.688;23.366;2022-07-11T12:04:33;59593.75;;;-145.06;31.88
6530;BME280;3298;42.688;23.366;2022-07-11T12:07:02;59667.59;;;-145.06;31.63
6530;BME280;3298;42.688;23.366;2022-07-11T12:09:29;60002.00;;;-145.06;30.73
6530;BME280;3298;42.688;23.366;2022-07-11T12:12:20;60041.00;;;-145.06;29.78
6530;BME280;3298;42.688;23.366;2022-07-11T12:15:22;59942.50;;;-145.06;29.56
6530;BME280;3298;42.688;23.366;2022-07-11T12:17:52;59778.38;;;-145.06;29.74
6530;BME280;3298;42.688;23.366;2022-07-11T12:20:36;59825.56;;;-145.06;30.11
6530;BME280;3298;42.688;23.366;2022-07-11T12:23:05;59899.44;;;-145.06;30.09
6530;BME280;3298;42.688;23.366;2022-07-11T12:25:32;59794.78;;;-145.06;30.58
6530;BME280;3298;42.688;23.366;2022-07-11T12:27:59;59954.81;;;-145.06;30.29
6530;BME280;3298;42.688;23.366;2022-07-11T12:30:27;59774.28;;;-145.06;30.90
6530;BME280;3298;42.688;23.366;2022-07-11T12:33:08;59675.81;;;-145.06;31.45
6530;BME280;3298;42.688;23.366;2022-07-11T12:35:35;59659.41;;;-145.06;31.24
6530;BME280;3298;42.688;23.366;2022-07-11T12:38:03;59671.72;;;-145.06;32.15
6530;BME280;3298;42.688;23.366;2022-07-11T12:40:30;59606.06;;;-145.06;31.13
6530;BME280;3298;42.688;23.366;2022-07-11T12:42:57;59536.31;;;-145.06;31.48
6530;BME280;3298;42.688;23.366;2022-07-11T12:45:24;59706.59;;;-145.06;31.68
6530;BME280;3298;42.688;23.366;2022-07-11T12:47:51;59642.97;;;-145.06;31.29
6530;BME280;3298;42.688;23.366;2022-07-11T12:50:22;59696.31;;;-145.06;31.11
6530;BME280;3298;42.688;23.366;2022-07-11T12:52:50;59720.94;;;-145.06;31.34
6530;BME280;3298;42.688;23.366;2022-07-11T12:55:22;59618.38;;;-145.06;31.19
6530;BME280;3298;42.688;23.366;2022-07-11T12:58:04;59521.94;;;-145.06;32.03
6530;BME280;3298;42.688;23.366;2022-07-11T13:00:31;59532.22;;;-145.06;32.28